Brummen, Netherlands
Current Conditions -  °F | °C
As of 7:25 PM on Sunday 25 Jan 2015 (Local Time) from EHDL Reporting Station
Haze Haze  
Wind Chill: 32°   Ceiling: 200
Heat Index: 37°   Visibility: 1.5mi
Dew Point: 37°   Wind: 7mph
Humidity: 100%   Direction: 190°S
Pressure: 30.33"   Gusts: NA
Location:  52.09°N, 6.16°E
Report Text: EHDL 251825Z AUTO 19006KT 2400 BR BKN002 BKN003 BKN008 03/03 Q1027 AMB
Loading
Personal Weather Stations






























Interactive Weather Map New forecast layout! Learn more

10-Day Weather Forecast

Advertisements
Track Severe Weather on mobile